sensor_id;sensor_type;location;lat;lon;timestamp;P1;P2;P0
55518;PMS5003;41724;51.176;-0.708;2022-08-14T00:01:43;15;15;
55518;PMS5003;41724;51.176;-0.708;2022-08-14T00:04:11;18;17;
55518;PMS5003;41724;51.176;-0.708;2022-08-14T00:06:39;16;16;
55518;PMS5003;41724;51.176;-0.708;2022-08-14T00:09:06;20;17;
55518;PMS5003;41724;51.176;-0.708;2022-08-14T00:11:33;16;16;
55518;PMS5003;41724;51.176;-0.708;2022-08-14T00:14:00;20;20;
55518;PMS5003;41724;51.176;-0.708;2022-08-14T00:16:27;17;15;
55518;PMS5003;41724;51.176;-0.708;2022-08-14T00:18:55;19;19;
55518;PMS5003;41724;51.176;-0.708;2022-08-14T00:21:22;20;18;
55518;PMS5003;41724;51.176;-0.708;2022-08-14T00:23:49;19;17;
55518;PMS5003;41724;51.176;-0.708;2022-08-14T00:26:17;17;17;
55518;PMS5003;41724;51.176;-0.708;2022-08-14T00:28:44;19;19;
55518;PMS5003;41724;51.176;-0.708;2022-08-14T00:31:11;16;16;
55518;PMS5003;41724;51.176;-0.708;2022-08-14T00:33:39;16;16;
55518;PMS5003;41724;51.176;-0.708;2022-08-14T00:36:06;18;18;
55518;PMS5003;41724;51.176;-0.708;2022-08-14T00:38:34;13;13;
55518;PMS5003;41724;51.176;-0.708;2022-08-14T00:41:02;18;17;
55518;PMS5003;41724;51.176;-0.708;2022-08-14T00:43:30;17;16;
55518;PMS5003;41724;51.176;-0.708;2022-08-14T00:45:59;16;16;
55518;PMS5003;41724;51.176;-0.708;2022-08-14T00:48:28;18;18;
55518;PMS5003;41724;51.176;-0.708;2022-08-14T00:50:56;19;19;
55518;PMS5003;41724;51.176;-0.708;2022-08-14T00:53:23;21;17;
55518;PMS5003;41724;51.176;-0.708;2022-08-14T00:55:50;14;14;
55518;PMS5003;41724;51.176;-0.708;2022-08-14T00:58:18;16;16;
55518;PMS5003;41724;51.176;-0.708;2022-08-14T01:00:45;15;15;
55518;PMS5003;41724;51.176;-0.708;2022-08-14T01:03:16;16;16;
55518;PMS5003;41724;51.176;-0.708;2022-08-14T01:05:44;17;17;
55518;PMS5003;41724;51.176;-0.708;2022-08-14T01:08:12;17;16;
55518;PMS5003;41724;51.176;-0.708;2022-08-14T01:10:40;18;17;
55518;PMS5003;41724;51.176;-0.708;2022-08-14T01:13:09;18;18;
55518;PMS5003;41724;51.176;-0.708;2022-08-14T01:15:36;20;20;
55518;PMS5003;41724;51.176;-0.708;2022-08-14T01:18:03;17;17;
55518;PMS5003;41724;51.176;-0.708;2022-08-14T01:20:31;16;16;
55518;PMS5003;41724;51.176;-0.708;2022-08-14T01:22:59;17;16;
55518;PMS5003;41724;51.176;-0.708;2022-08-14T01:25:26;17;17;
55518;PMS5003;41724;51.176;-0.708;2022-08-14T01:27:53;18;17;
55518;PMS5003;41724;51.176;-0.708;2022-08-14T01:30:20;17;16;
55518;PMS5003;41724;51.176;-0.708;2022-08-14T01:32:47;16;16;
55518;PMS5003;41724;51.176;-0.708;2022-08-14T01:35:15;19;19;
55518;PMS5003;41724;51.176;-0.708;2022-08-14T01:37:43;20;16;
55518;PMS5003;41724;51.176;-0.708;2022-08-14T01:40:11;16;16;
55518;PMS5003;41724;51.176;-0.708;2022-08-14T01:42:40;19;19;
55518;PMS5003;41724;51.176;-0.708;2022-08-14T01:45:08;16;16;
55518;PMS5003;41724;51.176;-0.708;2022-08-14T01:47:35;18;18;
55518;PMS5003;41724;51.176;-0.708;2022-08-14T01:50:03;17;17;
55518;PMS5003;41724;51.176;-0.708;2022-08-14T01:52:32;21;21;
55518;PMS5003;41724;51.176;-0.708;2022-08-14T01:54:59;20;18;
55518;PMS5003;41724;51.176;-0.708;2022-08-14T01:57:27;18;18;
55518;PMS5003;41724;51.176;-0.708;2022-08-14T01:59:54;19;19;
55518;PMS5003;41724;51.176;-0.708;2022-08-14T02:02:22;18;18;
55518;PMS5003;41724;51.176;-0.708;2022-08-14T02:04:49;17;17;
55518;PMS5003;41724;51.176;-0.708;2022-08-14T02:07:16;19;19;
55518;PMS5003;41724;51.176;-0.708;2022-08-14T02:09:44;17;17;
55518;PMS5003;41724;51.176;-0.708;2022-08-14T02:12:11;19;17;
55518;PMS5003;41724;51.176;-0.708;2022-08-14T02:14:38;15;15;
55518;PMS5003;41724;51.176;-0.708;2022-08-14T02:17:05;18;16;
55518;PMS5003;41724;51.176;-0.708;2022-08-14T02:19:33;18;18;
55518;PMS5003;41724;51.176;-0.708;2022-08-14T02:22:00;18;17;
55518;PMS5003;41724;51.176;-0.708;2022-08-14T02:24:27;17;17;
55518;PMS5003;41724;51.176;-0.708;2022-08-14T02:26:56;19;18;
55518;PMS5003;41724;51.176;-0.708;2022-08-14T02:29:26;15;15;
55518;PMS5003;41724;51.176;-0.708;2022-08-14T02:31:55;15;14;
55518;PMS5003;41724;51.176;-0.708;2022-08-14T02:34:24;16;16;
55518;PMS5003;41724;51.176;-0.708;2022-08-14T02:36:54;18;15;
55518;PMS5003;41724;51.176;-0.708;2022-08-14T02:39:23;15;15;
55518;PMS5003;41724;51.176;-0.708;2022-08-14T02:41:50;17;17;
55518;PMS5003;41724;51.176;-0.708;2022-08-14T02:44:18;19;17;
55518;PMS5003;41724;51.176;-0.708;2022-08-14T02:46:45;18;18;
55518;PMS5003;41724;51.176;-0.708;2022-08-14T02:49:12;17;17;
55518;PMS5003;41724;51.176;-0.708;2022-08-14T02:51:40;17;16;
55518;PMS5003;41724;51.176;-0.708;2022-08-14T02:54:08;17;17;
55518;PMS5003;41724;51.176;-0.708;2022-08-14T02:56:36;17;16;
55518;PMS5003;41724;51.176;-0.708;2022-08-14T02:59:03;20;17;
55518;PMS5003;41724;51.176;-0.708;2022-08-14T03:01:32;16;16;
55518;PMS5003;41724;51.176;-0.708;2022-08-14T03:04:00;15;15;
55518;PMS5003;41724;51.176;-0.708;2022-08-14T03:06:28;16;16;
55518;PMS5003;41724;51.176;-0.708;2022-08-14T03:08:55;15;13;
55518;PMS5003;41724;51.176;-0.708;2022-08-14T03:11:23;15;15;
55518;PMS5003;41724;51.176;-0.708;2022-08-14T03:13:50;15;15;
55518;PMS5003;41724;51.176;-0.708;2022-08-14T03:16:19;14;14;
55518;PMS5003;41724;51.176;-0.708;2022-08-14T03:18:50;16;16;
55518;PMS5003;41724;51.176;-0.708;2022-08-14T03:21:19;17;16;
55518;PMS5003;41724;51.176;-0.708;2022-08-14T03:23:48;16;16;
55518;PMS5003;41724;51.176;-0.708;2022-08-14T03:26:17;15;15;
55518;PMS5003;41724;51.176;-0.708;2022-08-14T03:28:46;14;14;
55518;PMS5003;41724;51.176;-0.708;2022-08-14T03:31:15;15;15;
55518;PMS5003;41724;51.176;-0.708;2022-08-14T03:33:43;13;13;
55518;PMS5003;41724;51.176;-0.708;2022-08-14T03:36:10;15;13;
55518;PMS5003;41724;51.176;-0.708;2022-08-14T03:38:40;16;14;
55518;PMS5003;41724;51.176;-0.708;2022-08-14T03:41:10;13;13;
55518;PMS5003;41724;51.176;-0.708;2022-08-14T03:43:39;15;15;
55518;PMS5003;41724;51.176;-0.708;2022-08-14T03:46:06;13;13;
55518;PMS5003;41724;51.176;-0.708;2022-08-14T03:48:33;13;13;
55518;PMS5003;41724;51.176;-0.708;2022-08-14T03:51:00;14;13;
55518;PMS5003;41724;51.176;-0.708;2022-08-14T03:53:28;15;15;
55518;PMS5003;41724;51.176;-0.708;2022-08-14T03:55:55;14;14;
55518;PMS5003;41724;51.176;-0.708;2022-08-14T03:58:22;16;16;
55518;PMS5003;41724;51.176;-0.708;2022-08-14T04:00:50;15;15;
55518;PMS5003;41724;51.176;-0.708;2022-08-14T04:03:17;16;16;
55518;PMS5003;41724;51.176;-0.708;2022-08-14T04:05:44;16;16;
55518;PMS5003;41724;51.176;-0.708;2022-08-14T04:08:12;15;15;
55518;PMS5003;41724;51.176;-0.708;2022-08-14T04:10:39;15;15;
55518;PMS5003;41724;51.176;-0.708;2022-08-14T04:13:06;15;15;
55518;PMS5003;41724;51.176;-0.708;2022-08-14T04:15:34;14;14;
55518;PMS5003;41724;51.176;-0.708;2022-08-14T04:18:02;15;14;
55518;PMS5003;41724;51.176;-0.708;2022-08-14T04:20:29;16;16;
55518;PMS5003;41724;51.176;-0.708;2022-08-14T04:22:56;16;14;
55518;PMS5003;41724;51.176;-0.708;2022-08-14T04:25:24;14;14;
55518;PMS5003;41724;51.176;-0.708;2022-08-14T04:27:51;16;16;
55518;PMS5003;41724;51.176;-0.708;2022-08-14T04:30:19;16;16;
55518;PMS5003;41724;51.176;-0.708;2022-08-14T04:32:46;16;16;
55518;PMS5003;41724;51.176;-0.708;2022-08-14T04:35:13;16;15;
55518;PMS5003;41724;51.176;-0.708;2022-08-14T04:37:40;16;16;
55518;PMS5003;41724;51.176;-0.708;2022-08-14T04:40:08;17;17;
55518;PMS5003;41724;51.176;-0.708;2022-08-14T04:42:36;16;16;
55518;PMS5003;41724;51.176;-0.708;2022-08-14T04:45:04;15;14;
55518;PMS5003;41724;51.176;-0.708;2022-08-14T04:47:31;19;17;
55518;PMS5003;41724;51.176;-0.708;2022-08-14T04:50:00;17;17;
55518;PMS5003;41724;51.176;-0.708;2022-08-14T04:52:28;16;15;
55518;PMS5003;41724;51.176;-0.708;2022-08-14T04:54:55;14;14;
55518;PMS5003;41724;51.176;-0.708;2022-08-14T04:57:22;15;14;
55518;PMS5003;41724;51.176;-0.708;2022-08-14T04:59:50;16;16;
55518;PMS5003;41724;51.176;-0.708;2022-08-14T05:02:17;18;15;
55518;PMS5003;41724;51.176;-0.708;2022-08-14T05:04:44;14;14;
55518;PMS5003;41724;51.176;-0.708;2022-08-14T05:07:11;16;16;
55518;PMS5003;41724;51.176;-0.708;2022-08-14T05:09:39;18;17;
55518;PMS5003;41724;51.176;-0.708;2022-08-14T05:12:07;15;15;
55518;PMS5003;41724;51.176;-0.708;2022-08-14T05:14:34;15;15;
55518;PMS5003;41724;51.176;-0.708;2022-08-14T05:17:01;16;16;
55518;PMS5003;41724;51.176;-0.708;2022-08-14T05:19:29;17;17;
55518;PMS5003;41724;51.176;-0.708;2022-08-14T05:21:55;18;18;
55518;PMS5003;41724;51.176;-0.708;2022-08-14T05:24:23;19;17;
55518;PMS5003;41724;51.176;-0.708;2022-08-14T05:26:50;18;17;
55518;PMS5003;41724;51.176;-0.708;2022-08-14T05:29:18;16;16;
55518;PMS5003;41724;51.176;-0.708;2022-08-14T05:31:45;19;18;
55518;PMS5003;41724;51.176;-0.708;2022-08-14T05:34:13;15;15;
55518;PMS5003;41724;51.176;-0.708;2022-08-14T05:36:40;18;18;
55518;PMS5003;41724;51.176;-0.708;2022-08-14T05:39:07;17;15;
55518;PMS5003;41724;51.176;-0.708;2022-08-14T05:41:35;18;17;
55518;PMS5003;41724;51.176;-0.708;2022-08-14T05:44:02;16;16;
55518;PMS5003;41724;51.176;-0.708;2022-08-14T05:46:29;16;16;
55518;PMS5003;41724;51.176;-0.708;2022-08-14T05:48:57;21;21;
55518;PMS5003;41724;51.176;-0.708;2022-08-14T05:51:25;21;19;
55518;PMS5003;41724;51.176;-0.708;2022-08-14T05:53:52;18;17;
55518;PMS5003;41724;51.176;-0.708;2022-08-14T05:56:21;21;19;
55518;PMS5003;41724;51.176;-0.708;2022-08-14T05:58:49;18;18;
55518;PMS5003;41724;51.176;-0.708;2022-08-14T06:01:17;18;18;
55518;PMS5003;41724;51.176;-0.708;2022-08-14T06:03:44;18;18;
55518;PMS5003;41724;51.176;-0.708;2022-08-14T06:06:11;19;19;
55518;PMS5003;41724;51.176;-0.708;2022-08-14T06:08:39;20;20;
55518;PMS5003;41724;51.176;-0.708;2022-08-14T06:11:07;18;18;
55518;PMS5003;41724;51.176;-0.708;2022-08-14T06:13:37;19;19;
55518;PMS5003;41724;51.176;-0.708;2022-08-14T06:16:06;20;20;
55518;PMS5003;41724;51.176;-0.708;2022-08-14T06:18:33;20;20;
55518;PMS5003;41724;51.176;-0.708;2022-08-14T06:21:02;20;20;
55518;PMS5003;41724;51.176;-0.708;2022-08-14T06:23:31;20;20;
55518;PMS5003;41724;51.176;-0.708;2022-08-14T06:25:59;19;19;
55518;PMS5003;41724;51.176;-0.708;2022-08-14T06:28:26;23;22;
55518;PMS5003;41724;51.176;-0.708;2022-08-14T06:30:53;18;18;
55518;PMS5003;41724;51.176;-0.708;2022-08-14T06:33:21;20;20;
55518;PMS5003;41724;51.176;-0.708;2022-08-14T06:35:49;22;22;
55518;PMS5003;41724;51.176;-0.708;2022-08-14T06:38:16;25;24;
55518;PMS5003;41724;51.176;-0.708;2022-08-14T06:40:45;21;21;
55518;PMS5003;41724;51.176;-0.708;2022-08-14T06:43:13;23;22;
55518;PMS5003;41724;51.176;-0.708;2022-08-14T06:45:43;24;24;
55518;PMS5003;41724;51.176;-0.708;2022-08-14T06:48:12;20;20;
55518;PMS5003;41724;51.176;-0.708;2022-08-14T06:50:40;21;20;
55518;PMS5003;41724;51.176;-0.708;2022-08-14T06:53:07;21;21;
55518;PMS5003;41724;51.176;-0.708;2022-08-14T06:55:35;24;24;
55518;PMS5003;41724;51.176;-0.708;2022-08-14T06:58:02;24;23;
55518;PMS5003;41724;51.176;-0.708;2022-08-14T07:00:29;23;23;
55518;PMS5003;41724;51.176;-0.708;2022-08-14T07:02:56;19;19;
55518;PMS5003;41724;51.176;-0.708;2022-08-14T07:05:23;20;20;
55518;PMS5003;41724;51.176;-0.708;2022-08-14T07:07:50;21;20;
55518;PMS5003;41724;51.176;-0.708;2022-08-14T07:10:17;23;21;
55518;PMS5003;41724;51.176;-0.708;2022-08-14T07:12:45;21;21;
55518;PMS5003;41724;51.176;-0.708;2022-08-14T07:15:13;25;25;
55518;PMS5003;41724;51.176;-0.708;2022-08-14T07:17:44;25;25;
55518;PMS5003;41724;51.176;-0.708;2022-08-14T07:20:12;24;24;
55518;PMS5003;41724;51.176;-0.708;2022-08-14T07:22:40;26;23;
55518;PMS5003;41724;51.176;-0.708;2022-08-14T07:25:08;25;25;
55518;PMS5003;41724;51.176;-0.708;2022-08-14T07:27:35;22;22;
55518;PMS5003;41724;51.176;-0.708;2022-08-14T07:30:04;19;19;
55518;PMS5003;41724;51.176;-0.708;2022-08-14T07:32:32;24;24;
55518;PMS5003;41724;51.176;-0.708;2022-08-14T07:34:59;26;24;
55518;PMS5003;41724;51.176;-0.708;2022-08-14T07:37:26;23;23;
55518;PMS5003;41724;51.176;-0.708;2022-08-14T07:39:54;21;20;
55518;PMS5003;41724;51.176;-0.708;2022-08-14T07:42:21;24;22;
55518;PMS5003;41724;51.176;-0.708;2022-08-14T07:44:48;20;20;
55518;PMS5003;41724;51.176;-0.708;2022-08-14T07:47:15;24;23;
55518;PMS5003;41724;51.176;-0.708;2022-08-14T07:49:43;25;24;
55518;PMS5003;41724;51.176;-0.708;2022-08-14T07:52:23;22;22;
55518;PMS5003;41724;51.176;-0.708;2022-08-14T07:54:51;23;23;
55518;PMS5003;41724;51.176;-0.708;2022-08-14T07:57:19;25;24;
55518;PMS5003;41724;51.176;-0.708;2022-08-14T07:59:47;24;24;
55518;PMS5003;41724;51.176;-0.708;2022-08-14T08:02:15;21;21;
55518;PMS5003;41724;51.176;-0.708;2022-08-14T08:04:43;23;22;
55518;PMS5003;41724;51.176;-0.708;2022-08-14T08:07:12;23;23;
55518;PMS5003;41724;51.176;-0.708;2022-08-14T08:09:41;22;21;
55518;PMS5003;41724;51.176;-0.708;2022-08-14T08:12:10;21;21;
55518;PMS5003;41724;51.176;-0.708;2022-08-14T08:14:38;20;20;
55518;PMS5003;41724;51.176;-0.708;2022-08-14T08:17:07;19;19;
55518;PMS5003;41724;51.176;-0.708;2022-08-14T08:19:35;19;19;
55518;PMS5003;41724;51.176;-0.708;2022-08-14T08:22:03;19;19;
55518;PMS5003;41724;51.176;-0.708;2022-08-14T08:24:30;20;20;
55518;PMS5003;41724;51.176;-0.708;2022-08-14T08:26:58;19;19;
55518;PMS5003;41724;51.176;-0.708;2022-08-14T08:29:25;18;18;
55518;PMS5003;41724;51.176;-0.708;2022-08-14T08:31:52;20;19;
55518;PMS5003;41724;51.176;-0.708;2022-08-14T08:34:19;21;19;
55518;PMS5003;41724;51.176;-0.708;2022-08-14T08:36:47;21;21;
55518;PMS5003;41724;51.176;-0.708;2022-08-14T08:39:14;17;17;
55518;PMS5003;41724;51.176;-0.708;2022-08-14T08:41:42;19;19;
55518;PMS5003;41724;51.176;-0.708;2022-08-14T08:44:11;19;19;
55518;PMS5003;41724;51.176;-0.708;2022-08-14T08:46:39;21;20;
55518;PMS5003;41724;51.176;-0.708;2022-08-14T08:49:09;22;22;
55518;PMS5003;41724;51.176;-0.708;2022-08-14T08:51:36;17;17;
55518;PMS5003;41724;51.176;-0.708;2022-08-14T08:54:05;18;18;
55518;PMS5003;41724;51.176;-0.708;2022-08-14T08:56:34;21;19;
55518;PMS5003;41724;51.176;-0.708;2022-08-14T08:59:14;21;18;
55518;PMS5003;41724;51.176;-0.708;2022-08-14T09:01:45;21;18;
55518;PMS5003;41724;51.176;-0.708;2022-08-14T09:04:15;22;20;
55518;PMS5003;41724;51.176;-0.708;2022-08-14T09:06:43;19;19;
55518;PMS5003;41724;51.176;-0.708;2022-08-14T09:09:18;20;19;
55518;PMS5003;41724;51.176;-0.708;2022-08-14T09:11:47;18;18;
55518;PMS5003;41724;51.176;-0.708;2022-08-14T09:14:14;18;18;
55518;PMS5003;41724;51.176;-0.708;2022-08-14T09:16:41;17;17;
55518;PMS5003;41724;51.176;-0.708;2022-08-14T09:19:09;17;16;
55518;PMS5003;41724;51.176;-0.708;2022-08-14T09:21:37;20;20;
55518;PMS5003;41724;51.176;-0.708;2022-08-14T09:24:05;18;18;
55518;PMS5003;41724;51.176;-0.708;2022-08-14T09:26:33;20;20;
55518;PMS5003;41724;51.176;-0.708;2022-08-14T09:29:01;20;20;
55518;PMS5003;41724;51.176;-0.708;2022-08-14T09:31:29;21;19;
55518;PMS5003;41724;51.176;-0.708;2022-08-14T09:34:03;21;20;
55518;PMS5003;41724;51.176;-0.708;2022-08-14T09:36:44;18;18;
55518;PMS5003;41724;51.176;-0.708;2022-08-14T09:39:26;17;16;
55518;PMS5003;41724;51.176;-0.708;2022-08-14T09:42:22;18;18;
55518;PMS5003;41724;51.176;-0.708;2022-08-14T09:45:07;19;18;
55518;PMS5003;41724;51.176;-0.708;2022-08-14T09:47:39;21;18;
55518;PMS5003;41724;51.176;-0.708;2022-08-14T09:50:26;17;17;
55518;PMS5003;41724;51.176;-0.708;2022-08-14T09:52:56;18;18;
55518;PMS5003;41724;51.176;-0.708;2022-08-14T09:55:25;21;20;
55518;PMS5003;41724;51.176;-0.708;2022-08-14T09:58:05;16;16;
55518;PMS5003;41724;51.176;-0.708;2022-08-14T10:00:35;17;17;
55518;PMS5003;41724;51.176;-0.708;2022-08-14T10:03:09;20;18;
55518;PMS5003;41724;51.176;-0.708;2022-08-14T10:05:36;18;17;
55518;PMS5003;41724;51.176;-0.708;2022-08-14T10:08:17;18;17;
55518;PMS5003;41724;51.176;-0.708;2022-08-14T10:10:46;19;18;
55518;PMS5003;41724;51.176;-0.708;2022-08-14T10:13:20;18;18;
55518;PMS5003;41724;51.176;-0.708;2022-08-14T10:15:49;15;15;
55518;PMS5003;41724;51.176;-0.708;2022-08-14T10:18:17;14;14;
55518;PMS5003;41724;51.176;-0.708;2022-08-14T10:20:50;15;15;
55518;PMS5003;41724;51.176;-0.708;2022-08-14T10:23:20;16;16;
55518;PMS5003;41724;51.176;-0.708;2022-08-14T10:25:50;14;14;
55518;PMS5003;41724;51.176;-0.708;2022-08-14T10:28:19;15;15;
55518;PMS5003;41724;51.176;-0.708;2022-08-14T10:30:48;16;16;
55518;PMS5003;41724;51.176;-0.708;2022-08-14T10:33:24;16;16;
55518;PMS5003;41724;51.176;-0.708;2022-08-14T10:35:53;14;14;
55518;PMS5003;41724;51.176;-0.708;2022-08-14T10:38:29;17;16;
55518;PMS5003;41724;51.176;-0.708;2022-08-14T10:41:10;16;14;
55518;PMS5003;41724;51.176;-0.708;2022-08-14T10:43:39;16;16;
55518;PMS5003;41724;51.176;-0.708;2022-08-14T10:46:12;14;14;
55518;PMS5003;41724;51.176;-0.708;2022-08-14T10:48:41;14;14;
55518;PMS5003;41724;51.176;-0.708;2022-08-14T10:51:23;15;15;
55518;PMS5003;41724;51.176;-0.708;2022-08-14T10:53:52;15;15;
55518;PMS5003;41724;51.176;-0.708;2022-08-14T10:56:27;15;15;
55518;PMS5003;41724;51.176;-0.708;2022-08-14T10:59:00;12;12;
55518;PMS5003;41724;51.176;-0.708;2022-08-14T11:01:29;16;16;
55518;PMS5003;41724;51.176;-0.708;2022-08-14T11:03:57;14;13;
55518;PMS5003;41724;51.176;-0.708;2022-08-14T11:06:24;11;11;
55518;PMS5003;41724;51.176;-0.708;2022-08-14T11:08:52;16;14;
55518;PMS5003;41724;51.176;-0.708;2022-08-14T11:11:19;11;11;
55518;PMS5003;41724;51.176;-0.708;2022-08-14T11:13:47;10;10;
55518;PMS5003;41724;51.176;-0.708;2022-08-14T11:16:14;11;11;
55518;PMS5003;41724;51.176;-0.708;2022-08-14T11:18:44;11;11;
55518;PMS5003;41724;51.176;-0.708;2022-08-14T11:21:13;15;15;
55518;PMS5003;41724;51.176;-0.708;2022-08-14T11:23:43;14;14;
55518;PMS5003;41724;51.176;-0.708;2022-08-14T11:26:12;14;13;
55518;PMS5003;41724;51.176;-0.708;2022-08-14T11:28:41;13;11;
55518;PMS5003;41724;51.176;-0.708;2022-08-14T11:31:10;12;12;
55518;PMS5003;41724;51.176;-0.708;2022-08-14T11:33:38;14;12;
55518;PMS5003;41724;51.176;-0.708;2022-08-14T11:36:06;12;12;
55518;PMS5003;41724;51.176;-0.708;2022-08-14T11:38:36;9;9;
55518;PMS5003;41724;51.176;-0.708;2022-08-14T11:41:04;9;9;
55518;PMS5003;41724;51.176;-0.708;2022-08-14T11:43:31;6;6;
55518;PMS5003;41724;51.176;-0.708;2022-08-14T11:46:03;9;9;
55518;PMS5003;41724;51.176;-0.708;2022-08-14T11:48:31;7;7;
55518;PMS5003;41724;51.176;-0.708;2022-08-14T11:50:58;6;6;
55518;PMS5003;41724;51.176;-0.708;2022-08-14T11:53:26;9;9;
55518;PMS5003;41724;51.176;-0.708;2022-08-14T11:55:55;8;8;
55518;PMS5003;41724;51.176;-0.708;2022-08-14T11:58:24;8;7;
55518;PMS5003;41724;51.176;-0.708;2022-08-14T12:00:53;7;7;
55518;PMS5003;41724;51.176;-0.708;2022-08-14T12:03:21;7;7;
55518;PMS5003;41724;51.176;-0.708;2022-08-14T12:05:48;10;9;
55518;PMS5003;41724;51.176;-0.708;2022-08-14T12:08:16;8;8;
55518;PMS5003;41724;51.176;-0.708;2022-08-14T12:10:43;6;6;
55518;PMS5003;41724;51.176;-0.708;2022-08-14T12:13:11;8;7;
55518;PMS5003;41724;51.176;-0.708;2022-08-14T12:15:41;8;8;
55518;PMS5003;41724;51.176;-0.708;2022-08-14T12:18:09;10;10;
55518;PMS5003;41724;51.176;-0.708;2022-08-14T12:20:38;12;11;
55518;PMS5003;41724;51.176;-0.708;2022-08-14T12:23:18;8;8;
55518;PMS5003;41724;51.176;-0.708;2022-08-14T12:25:46;5;5;
55518;PMS5003;41724;51.176;-0.708;2022-08-14T12:28:13;9;9;
55518;PMS5003;41724;51.176;-0.708;2022-08-14T12:30:43;8;8;
55518;PMS5003;41724;51.176;-0.708;2022-08-14T12:33:20;10;9;
55518;PMS5003;41724;51.176;-0.708;2022-08-14T12:35:48;10;10;
55518;PMS5003;41724;51.176;-0.708;2022-08-14T12:38:15;9;9;
55518;PMS5003;41724;51.176;-0.708;2022-08-14T12:40:44;9;9;
55518;PMS5003;41724;51.176;-0.708;2022-08-14T12:43:12;9;9;
55518;PMS5003;41724;51.176;-0.708;2022-08-14T12:45:39;7;7;
55518;PMS5003;41724;51.176;-0.708;2022-08-14T12:48:12;8;8;
55518;PMS5003;41724;51.176;-0.708;2022-08-14T12:50:41;7;7;
55518;PMS5003;41724;51.176;-0.708;2022-08-14T12:53:13;8;8;
55518;PMS5003;41724;51.176;-0.708;2022-08-14T12:55:42;8;8;
55518;PMS5003;41724;51.176;-0.708;2022-08-14T12:58:10;7;7;
55518;PMS5003;41724;51.176;-0.708;2022-08-14T13:00:46;9;9;
55518;PMS5003;41724;51.176;-0.708;2022-08-14T13:03:22;10;10;
55518;PMS5003;41724;51.176;-0.708;2022-08-14T13:05:49;9;9;
55518;PMS5003;41724;51.176;-0.708;2022-08-14T13:08:18;8;8;
55518;PMS5003;41724;51.176;-0.708;2022-08-14T13:10:46;8;8;
55518;PMS5003;41724;51.176;-0.708;2022-08-14T13:13:15;10;10;
55518;PMS5003;41724;51.176;-0.708;2022-08-14T13:15:43;9;9;
55518;PMS5003;41724;51.176;-0.708;2022-08-14T13:18:12;9;7;
55518;PMS5003;41724;51.176;-0.708;2022-08-14T13:20:41;8;8;
55518;PMS5003;41724;51.176;-0.708;2022-08-14T13:23:09;9;9;
55518;PMS5003;41724;51.176;-0.708;2022-08-14T13:25:37;8;8;
55518;PMS5003;41724;51.176;-0.708;2022-08-14T13:28:04;8;8;
55518;PMS5003;41724;51.176;-0.708;2022-08-14T13:30:33;8;8;
55518;PMS5003;41724;51.176;-0.708;2022-08-14T13:33:01;8;8;
55518;PMS5003;41724;51.176;-0.708;2022-08-14T13:35:28;7;7;
55518;PMS5003;41724;51.176;-0.708;2022-08-14T13:37:55;10;8;
55518;PMS5003;41724;51.176;-0.708;2022-08-14T13:40:23;9;9;
55518;PMS5003;41724;51.176;-0.708;2022-08-14T13:42:50;7;7;
55518;PMS5003;41724;51.176;-0.708;2022-08-14T13:45:17;7;7;
55518;PMS5003;41724;51.176;-0.708;2022-08-14T13:47:45;8;8;
55518;PMS5003;41724;51.176;-0.708;2022-08-14T13:50:13;9;9;
55518;PMS5003;41724;51.176;-0.708;2022-08-14T13:52:42;8;8;
55518;PMS5003;41724;51.176;-0.708;2022-08-14T13:55:11;7;7;
55518;PMS5003;41724;51.176;-0.708;2022-08-14T13:57:41;7;7;
55518;PMS5003;41724;51.176;-0.708;2022-08-14T14:00:09;9;9;
55518;PMS5003;41724;51.176;-0.708;2022-08-14T14:02:39;7;7;
55518;PMS5003;41724;51.176;-0.708;2022-08-14T14:05:09;8;8;
55518;PMS5003;41724;51.176;-0.708;2022-08-14T14:07:40;9;9;
55518;PMS5003;41724;51.176;-0.708;2022-08-14T14:10:11;8;8;
55518;PMS5003;41724;51.176;-0.708;2022-08-14T14:12:39;7;7;
55518;PMS5003;41724;51.176;-0.708;2022-08-14T14:15:08;6;6;
55518;PMS5003;41724;51.176;-0.708;2022-08-14T14:17:37;8;8;
55518;PMS5003;41724;51.176;-0.708;2022-08-14T14:20:05;8;8;
55518;PMS5003;41724;51.176;-0.708;2022-08-14T14:22:34;9;9;
55518;PMS5003;41724;51.176;-0.708;2022-08-14T14:25:05;6;6;
55518;PMS5003;41724;51.176;-0.708;2022-08-14T14:27:33;9;9;
55518;PMS5003;41724;51.176;-0.708;2022-08-14T14:30:03;6;6;
55518;PMS5003;41724;51.176;-0.708;2022-08-14T14:32:31;7;7;
55518;PMS5003;41724;51.176;-0.708;2022-08-14T14:34:59;7;7;
55518;PMS5003;41724;51.176;-0.708;2022-08-14T14:37:28;9;9;
55518;PMS5003;41724;51.176;-0.708;2022-08-14T14:39:56;8;8;
55518;PMS5003;41724;51.176;-0.708;2022-08-14T14:42:28;8;8;
55518;PMS5003;41724;51.176;-0.708;2022-08-14T14:44:58;7;7;
55518;PMS5003;41724;51.176;-0.708;2022-08-14T14:47:30;8;8;
55518;PMS5003;41724;51.176;-0.708;2022-08-14T14:49:58;9;8;
55518;PMS5003;41724;51.176;-0.708;2022-08-14T14:52:26;9;9;
55518;PMS5003;41724;51.176;-0.708;2022-08-14T14:54:59;8;8;
55518;PMS5003;41724;51.176;-0.708;2022-08-14T14:57:26;8;8;
55518;PMS5003;41724;51.176;-0.708;2022-08-14T14:59:54;9;9;
55518;PMS5003;41724;51.176;-0.708;2022-08-14T15:02:33;6;6;
55518;PMS5003;41724;51.176;-0.708;2022-08-14T15:05:02;10;8;
55518;PMS5003;41724;51.176;-0.708;2022-08-14T15:07:30;7;7;
55518;PMS5003;41724;51.176;-0.708;2022-08-14T15:09:58;7;7;
55518;PMS5003;41724;51.176;-0.708;2022-08-14T15:12:26;9;8;
55518;PMS5003;41724;51.176;-0.708;2022-08-14T15:14:53;9;7;
55518;PMS5003;41724;51.176;-0.708;2022-08-14T15:17:20;8;8;
55518;PMS5003;41724;51.176;-0.708;2022-08-14T15:19:48;7;7;
55518;PMS5003;41724;51.176;-0.708;2022-08-14T15:22:15;6;6;
55518;PMS5003;41724;51.176;-0.708;2022-08-14T15:24:42;9;9;
55518;PMS5003;41724;51.176;-0.708;2022-08-14T15:27:10;10;10;
55518;PMS5003;41724;51.176;-0.708;2022-08-14T15:29:37;8;8;
55518;PMS5003;41724;51.176;-0.708;2022-08-14T15:32:05;10;9;
55518;PMS5003;41724;51.176;-0.708;2022-08-14T15:34:33;11;10;
55518;PMS5003;41724;51.176;-0.708;2022-08-14T15:37:01;8;8;
55518;PMS5003;41724;51.176;-0.708;2022-08-14T15:39:30;9;9;
55518;PMS5003;41724;51.176;-0.708;2022-08-14T15:41:57;8;8;
55518;PMS5003;41724;51.176;-0.708;2022-08-14T15:44:24;7;7;
55518;PMS5003;41724;51.176;-0.708;2022-08-14T15:46:52;9;8;
55518;PMS5003;41724;51.176;-0.708;2022-08-14T15:49:20;9;8;
55518;PMS5003;41724;51.176;-0.708;2022-08-14T15:51:47;6;6;
55518;PMS5003;41724;51.176;-0.708;2022-08-14T15:54:14;10;10;
55518;PMS5003;41724;51.176;-0.708;2022-08-14T15:56:41;8;8;
55518;PMS5003;41724;51.176;-0.708;2022-08-14T15:59:08;10;10;
55518;PMS5003;41724;51.176;-0.708;2022-08-14T16:01:37;9;9;
55518;PMS5003;41724;51.176;-0.708;2022-08-14T16:04:04;8;8;
55518;PMS5003;41724;51.176;-0.708;2022-08-14T16:06:31;7;7;
55518;PMS5003;41724;51.176;-0.708;2022-08-14T16:08:58;10;10;
55518;PMS5003;41724;51.176;-0.708;2022-08-14T16:11:26;8;8;
55518;PMS5003;41724;51.176;-0.708;2022-08-14T16:13:54;9;9;
55518;PMS5003;41724;51.176;-0.708;2022-08-14T16:16:22;9;9;
55518;PMS5003;41724;51.176;-0.708;2022-08-14T16:18:50;9;9;